Akvile — LYJM — position and weather

sailwx.info

Track history (hours):
 
Tides and Currents Weather Stations Pressure Air Temp Water Temp Dewpoint Dewpoint Depression Visibility Wind Speed Wind Dir Waves Ship Positions

Akvile

Last reported at 2014-Nov-20 09:25 UTC. Time now 2014-Nov-28 04:15 UTC.
Position N 43°16' E 009°41'.

Length 103 m; draft 7 m.

Type: Ship (hazmat cat A). MMSI: 277073000.

Date/timePositionNaut miles runAvg speedWind from/ knotsBaromVisibWave heightAir tempDewpointWater temp
2014-Nov-20 09:25N 43°16' E 009°41'1011.7
2014-Nov-20 08:33N 43°26' E 009°43'1211.8
2014-Nov-20 07:33N 43°38' E 009°45'1211.8
2014-Nov-20 06:33N 43°49' E 009°48'1111.5
2014-Nov-20 05:33N 44°00' E 009°52'6 6.2
2014-Nov-20 04:32N 44°07' E 009°50'0 0.0
2014-Nov-20 03:29N 44°07' E 009°50'0 0.0
2014-Nov-20 02:32N 44°07' E 009°50'0 0.0
2014-Nov-20 01:32N 44°07' E 009°50'0 0.0
2014-Nov-20 00:32N 44°07' E 009°50'0 0.0
2014-Nov-19 23:32N 44°07' E 009°50'0 0.0
2014-Nov-19 22:32N 44°07' E 009°50'0 0.0
2014-Nov-19 21:32N 44°07' E 009°50'0 0.0
2014-Nov-19 20:32N 44°07' E 009°50'0 0.0
2014-Nov-19 19:32N 44°07' E 009°50'0 0.0
2014-Nov-19 18:32N 44°07' E 009°50'0 0.0
2014-Nov-19 17:32N 44°07' E 009°50'0 0.0
2014-Nov-19 16:29N 44°07' E 009°50'0 0.0
2014-Nov-19 15:32N 44°07' E 009°50'0 0.0
2014-Nov-19 14:32N 44°07' E 009°50'0 0.0
2014-Nov-19 13:32N 44°07' E 009°50'0 0.0
2014-Nov-19 12:32N 44°07' E 009°50'0 0.0
2014-Nov-19 11:32N 44°07' E 009°50'0 0.0
2014-Nov-19 10:32N 44°07' E 009°50'0 0.0
2014-Nov-19 09:32N 44°07' E 009°50'0 0.0
2014-Nov-19 08:32N 44°07' E 009°50'0 0.0
2014-Nov-19 07:32N 44°07' E 009°50'0 0.0
2014-Nov-19 06:32N 44°07' E 009°50'0 0.0
2014-Nov-19 05:32N 44°07' E 009°50'0 0.0
2014-Nov-19 04:32N 44°07' E 009°50'0 0.0
2014-Nov-19 03:32N 44°07' E 009°50'0 0.0
2014-Nov-19 02:32N 44°07' E 009°50'0 0.0
2014-Nov-19 01:32N 44°07' E 009°50'0 0.0
2014-Nov-19 00:32N 44°07' E 009°50'0 0.0
2014-Nov-18 23:32N 44°07' E 009°50'0 0.0
2014-Nov-18 22:32N 44°07' E 009°50'0 0.0
2014-Nov-18 21:32N 44°07' E 009°50'0 0.0
2014-Nov-18 20:32N 44°07' E 009°50'0 0.0
2014-Nov-18 19:32N 44°07' E 009°50'0 0.0
2014-Nov-18 18:32N 44°07' E 009°50'0 0.0
2014-Nov-18 17:32N 44°07' E 009°50'0 0.0
2014-Nov-18 16:32N 44°07' E 009°50'0 0.0
2014-Nov-18 15:32N 44°07' E 009°50'0 0.0
2014-Nov-18 14:32N 44°07' E 009°50'0 0.0
2014-Nov-18 13:32N 44°07' E 009°50'0 0.0
2014-Nov-18 12:32N 44°07' E 009°50'0 0.0
2014-Nov-18 11:32N 44°07' E 009°50'0 0.0
2014-Nov-18 10:32N 44°07' E 009°50'0 0.0
2014-Nov-18 09:32N 44°07' E 009°50'0 0.0
2014-Nov-18 08:32N 44°07' E 009°50'0 0.0
2014-Nov-18 07:32N 44°07' E 009°50'0 0.0
2014-Nov-18 06:32N 44°07' E 009°50'0 0.1
2014-Nov-18 05:34N 44°06' E 009°50'7 7.4
2014-Nov-18 04:33N 43°60' E 009°54'1010.4
2014-Nov-18 03:33N 43°49' E 009°50'6 5.6
2014-Nov-18 02:33N 43°44' E 009°49'8 7.6
2014-Nov-18 01:33N 43°51' E 009°52'4 4.1
2014-Nov-18 00:33N 43°55' E 009°52'1212.0
2014-Nov-17 23:33N 43°44' E 009°46'1211.9
2014-Nov-17 22:33N 43°32' E 009°44'1111.2
2014-Nov-17 21:33N 43°21' E 009°43'1212.0
2014-Nov-17 20:33N 43°09' E 009°40'37711.8
2014-Nov-16 12:33N 37°01' E 011°20'1211.6
2014-Nov-16 11:33N 36°49' E 011°17'1311.7
2014-Nov-16 10:24N 36°36' E 011°14'1011.6
2014-Nov-16 09:33N 36°26' E 011°10'45 1.6
2014-Nov-15 06:26N 35°50' E 010°39'0 0.0
2014-Nov-15 05:33N 35°50' E 010°39'0 0.0
2014-Nov-15 04:31N 35°50' E 010°39'  
2014-Nov-11 02:31N 36°35' E 011°31'1010.8
2014-Nov-11 01:33N 36°45' E 011°30'1111.2
2014-Nov-11 00:33N 36°56' E 011°28'  
Track history (hours):
 
Tides and Currents Weather Stations Pressure Air Temp Water Temp Dewpoint Dewpoint Depression Visibility Wind Speed Wind Dir Waves Ship Positions

Akvile

Last reported at 2014-Nov-20 09:25 UTC. Time now 2014-Nov-28 04:15 UTC.
Position N 43°16' E 009°41'.

Length 103 m; draft 7 m.

Type: Ship (hazmat cat A). MMSI: 277073000.

Date/timePositionNaut miles runAvg speedWind from/ knotsBaromVisibWave heightAir tempDewpointWater temp
2014-Nov-20 09:25N 43°16' E 009°41'1011.7
2014-Nov-20 08:33N 43°26' E 009°43'1211.8
2014-Nov-20 07:33N 43°38' E 009°45'1211.8
2014-Nov-20 06:33N 43°49' E 009°48'1111.5
2014-Nov-20 05:33N 44°00' E 009°52'6 6.2
2014-Nov-20 04:32N 44°07' E 009°50'0 0.0
2014-Nov-20 03:29N 44°07' E 009°50'0 0.0
2014-Nov-20 02:32N 44°07' E 009°50'0 0.0
2014-Nov-20 01:32N 44°07' E 009°50'0 0.0
2014-Nov-20 00:32N 44°07' E 009°50'0 0.0
2014-Nov-19 23:32N 44°07' E 009°50'0 0.0
2014-Nov-19 22:32N 44°07' E 009°50'0 0.0
2014-Nov-19 21:32N 44°07' E 009°50'0 0.0
2014-Nov-19 20:32N 44°07' E 009°50'0 0.0
2014-Nov-19 19:32N 44°07' E 009°50'0 0.0
2014-Nov-19 18:32N 44°07' E 009°50'0 0.0
2014-Nov-19 17:32N 44°07' E 009°50'0 0.0
2014-Nov-19 16:29N 44°07' E 009°50'0 0.0
2014-Nov-19 15:32N 44°07' E 009°50'0 0.0
2014-Nov-19 14:32N 44°07' E 009°50'0 0.0
2014-Nov-19 13:32N 44°07' E 009°50'0 0.0
2014-Nov-19 12:32N 44°07' E 009°50'0 0.0
2014-Nov-19 11:32N 44°07' E 009°50'0 0.0
2014-Nov-19 10:32N 44°07' E 009°50'0 0.0
2014-Nov-19 09:32N 44°07' E 009°50'0 0.0
2014-Nov-19 08:32N 44°07' E 009°50'0 0.0
2014-Nov-19 07:32N 44°07' E 009°50'0 0.0
2014-Nov-19 06:32N 44°07' E 009°50'0 0.0
2014-Nov-19 05:32N 44°07' E 009°50'0 0.0
2014-Nov-19 04:32N 44°07' E 009°50'0 0.0
2014-Nov-19 03:32N 44°07' E 009°50'0 0.0
2014-Nov-19 02:32N 44°07' E 009°50'0 0.0
2014-Nov-19 01:32N 44°07' E 009°50'0 0.0
2014-Nov-19 00:32N 44°07' E 009°50'0 0.0
2014-Nov-18 23:32N 44°07' E 009°50'0 0.0
2014-Nov-18 22:32N 44°07' E 009°50'0 0.0
2014-Nov-18 21:32N 44°07' E 009°50'0 0.0
2014-Nov-18 20:32N 44°07' E 009°50'0 0.0
2014-Nov-18 19:32N 44°07' E 009°50'0 0.0
2014-Nov-18 18:32N 44°07' E 009°50'0 0.0
2014-Nov-18 17:32N 44°07' E 009°50'0 0.0
2014-Nov-18 16:32N 44°07' E 009°50'0 0.0
2014-Nov-18 15:32N 44°07' E 009°50'0 0.0
2014-Nov-18 14:32N 44°07' E 009°50'0 0.0
2014-Nov-18 13:32N 44°07' E 009°50'0 0.0
2014-Nov-18 12:32N 44°07' E 009°50'0 0.0
2014-Nov-18 11:32N 44°07' E 009°50'0 0.0
2014-Nov-18 10:32N 44°07' E 009°50'0 0.0
2014-Nov-18 09:32N 44°07' E 009°50'0 0.0
2014-Nov-18 08:32N 44°07' E 009°50'0 0.0
2014-Nov-18 07:32N 44°07' E 009°50'0 0.0
2014-Nov-18 06:32N 44°07' E 009°50'0 0.1
2014-Nov-18 05:34N 44°06' E 009°50'7 7.4
2014-Nov-18 04:33N 43°60' E 009°54'1010.4
2014-Nov-18 03:33N 43°49' E 009°50'6 5.6
2014-Nov-18 02:33N 43°44' E 009°49'8 7.6
2014-Nov-18 01:33N 43°51' E 009°52'4 4.1
2014-Nov-18 00:33N 43°55' E 009°52'1212.0
2014-Nov-17 23:33N 43°44' E 009°46'1211.9
2014-Nov-17 22:33N 43°32' E 009°44'1111.2
2014-Nov-17 21:33N 43°21' E 009°43'1212.0
2014-Nov-17 20:33N 43°09' E 009°40'37711.8
2014-Nov-16 12:33N 37°01' E 011°20'1211.6
2014-Nov-16 11:33N 36°49' E 011°17'1311.7
2014-Nov-16 10:24N 36°36' E 011°14'1011.6
2014-Nov-16 09:33N 36°26' E 011°10'45 1.6
2014-Nov-15 06:26N 35°50' E 010°39'0 0.0
2014-Nov-15 05:33N 35°50' E 010°39'0 0.0
2014-Nov-15 04:31N 35°50' E 010°39'  
2014-Nov-11 02:31N 36°35' E 011°31'1010.8
2014-Nov-11 01:33N 36°45' E 011°30'1111.2
2014-Nov-11 00:33N 36°56' E 011°28'  

Dump ship's entire track history